sensor_id;sensor_type;location;lat;lon;timestamp;P1;durP1;ratioP1;P2;durP2;ratioP2
37543;SDS011;23385;52.038;20.322;2022-07-29T00:01:55;9.43;;;5.40;;
37543;SDS011;23385;52.038;20.322;2022-07-29T00:04:21;8.90;;;5.70;;
37543;SDS011;23385;52.038;20.322;2022-07-29T00:06:47;8.40;;;5.87;;
37543;SDS011;23385;52.038;20.322;2022-07-29T00:09:12;11.80;;;6.07;;
37543;SDS011;23385;52.038;20.322;2022-07-29T00:11:38;8.60;;;5.80;;
37543;SDS011;23385;52.038;20.322;2022-07-29T00:14:04;9.10;;;6.00;;
37543;SDS011;23385;52.038;20.322;2022-07-29T00:16:30;8.27;;;5.87;;
37543;SDS011;23385;52.038;20.322;2022-07-29T00:18:56;7.63;;;5.47;;
37543;SDS011;23385;52.038;20.322;2022-07-29T00:21:21;11.67;;;6.13;;
37543;SDS011;23385;52.038;20.322;2022-07-29T00:23:47;9.33;;;5.60;;
37543;SDS011;23385;52.038;20.322;2022-07-29T00:26:13;7.60;;;5.60;;
37543;SDS011;23385;52.038;20.322;2022-07-29T00:28:38;6.77;;;4.80;;
37543;SDS011;23385;52.038;20.322;2022-07-29T00:31:04;7.77;;;5.17;;
37543;SDS011;23385;52.038;20.322;2022-07-29T00:33:30;8.23;;;4.80;;
37543;SDS011;23385;52.038;20.322;2022-07-29T00:35:56;9.50;;;5.40;;
37543;SDS011;23385;52.038;20.322;2022-07-29T00:38:21;9.40;;;4.83;;
37543;SDS011;23385;52.038;20.322;2022-07-29T00:40:47;9.03;;;5.30;;
37543;SDS011;23385;52.038;20.322;2022-07-29T00:43:13;9.23;;;5.03;;
37543;SDS011;23385;52.038;20.322;2022-07-29T00:45:40;11.47;;;5.60;;
37543;SDS011;23385;52.038;20.322;2022-07-29T00:48:07;9.20;;;5.30;;
37543;SDS011;23385;52.038;20.322;2022-07-29T00:50:33;8.57;;;5.33;;
37543;SDS011;23385;52.038;20.322;2022-07-29T00:53:00;9.67;;;5.30;;
37543;SDS011;23385;52.038;20.322;2022-07-29T00:55:27;9.07;;;5.50;;
37543;SDS011;23385;52.038;20.322;2022-07-29T00:57:54;7.27;;;5.00;;
37543;SDS011;23385;52.038;20.322;2022-07-29T01:00:22;7.27;;;5.33;;
37543;SDS011;23385;52.038;20.322;2022-07-29T01:02:49;11.00;;;5.03;;
37543;SDS011;23385;52.038;20.322;2022-07-29T01:05:18;7.53;;;4.67;;
37543;SDS011;23385;52.038;20.322;2022-07-29T01:07:46;9.03;;;4.83;;
37543;SDS011;23385;52.038;20.322;2022-07-29T01:10:16;8.33;;;5.13;;
37543;SDS011;23385;52.038;20.322;2022-07-29T01:12:43;10.83;;;5.27;;
37543;SDS011;23385;52.038;20.322;2022-07-29T01:15:11;10.93;;;5.00;;
37543;SDS011;23385;52.038;20.322;2022-07-29T01:17:52;8.87;;;4.87;;
37543;SDS011;23385;52.038;20.322;2022-07-29T01:31:34;7.97;;;5.60;;
37543;SDS011;23385;52.038;20.322;2022-07-29T01:34:07;7.60;;;5.10;;
37543;SDS011;23385;52.038;20.322;2022-07-29T01:37:12;7.23;;;5.10;;
37543;SDS011;23385;52.038;20.322;2022-07-29T01:39:40;8.33;;;5.40;;
37543;SDS011;23385;52.038;20.322;2022-07-29T01:42:15;6.83;;;4.90;;
37543;SDS011;23385;52.038;20.322;2022-07-29T01:47:35;7.60;;;4.93;;
37543;SDS011;23385;52.038;20.322;2022-07-29T01:50:10;9.77;;;4.53;;
37543;SDS011;23385;52.038;20.322;2022-07-29T01:52:42;8.53;;;4.80;;
37543;SDS011;23385;52.038;20.322;2022-07-29T01:55:17;8.53;;;5.13;;
37543;SDS011;23385;52.038;20.322;2022-07-29T01:57:47;7.03;;;4.87;;
37543;SDS011;23385;52.038;20.322;2022-07-29T02:00:14;8.30;;;5.10;;
37543;SDS011;23385;52.038;20.322;2022-07-29T02:02:42;6.33;;;4.90;;
37543;SDS011;23385;52.038;20.322;2022-07-29T02:05:10;5.43;;;4.53;;
37543;SDS011;23385;52.038;20.322;2022-07-29T02:07:43;10.73;;;4.77;;
37543;SDS011;23385;52.038;20.322;2022-07-29T02:10:11;5.90;;;4.27;;
37543;SDS011;23385;52.038;20.322;2022-07-29T02:12:38;7.80;;;5.10;;
37543;SDS011;23385;52.038;20.322;2022-07-29T02:45:21;8.10;;;4.43;;
37543;SDS011;23385;52.038;20.322;2022-07-29T02:47:50;6.80;;;4.60;;
37543;SDS011;23385;52.038;20.322;2022-07-29T02:50:25;7.23;;;4.50;;
37543;SDS011;23385;52.038;20.322;2022-07-29T02:53:05;5.93;;;4.23;;
37543;SDS011;23385;52.038;20.322;2022-07-29T02:58:15;6.93;;;4.60;;
37543;SDS011;23385;52.038;20.322;2022-07-29T03:00:53;6.73;;;4.77;;
37543;SDS011;23385;52.038;20.322;2022-07-29T03:03:25;9.20;;;4.70;;
37543;SDS011;23385;52.038;20.322;2022-07-29T03:05:57;12.57;;;4.80;;
37543;SDS011;23385;52.038;20.322;2022-07-29T03:08:26;6.07;;;4.43;;
37543;SDS011;23385;52.038;20.322;2022-07-29T03:10:52;6.60;;;4.40;;
37543;SDS011;23385;52.038;20.322;2022-07-29T03:13:19;7.07;;;4.20;;
37543;SDS011;23385;52.038;20.322;2022-07-29T03:15:45;7.30;;;4.40;;
37543;SDS011;23385;52.038;20.322;2022-07-29T03:18:12;7.87;;;4.70;;
37543;SDS011;23385;52.038;20.322;2022-07-29T03:20:39;10.03;;;4.30;;
37543;SDS011;23385;52.038;20.322;2022-07-29T03:23:05;6.63;;;4.10;;
37543;SDS011;23385;52.038;20.322;2022-07-29T03:25:31;9.77;;;4.73;;
37543;SDS011;23385;52.038;20.322;2022-07-29T03:27:57;6.17;;;4.27;;
37543;SDS011;23385;52.038;20.322;2022-07-29T03:30:22;8.13;;;4.50;;
37543;SDS011;23385;52.038;20.322;2022-07-29T03:32:49;9.97;;;4.17;;
37543;SDS011;23385;52.038;20.322;2022-07-29T03:35:15;8.60;;;4.60;;
37543;SDS011;23385;52.038;20.322;2022-07-29T03:37:44;9.83;;;4.50;;
37543;SDS011;23385;52.038;20.322;2022-07-29T03:40:11;7.07;;;4.47;;
37543;SDS011;23385;52.038;20.322;2022-07-29T03:42:42;6.17;;;4.10;;
37543;SDS011;23385;52.038;20.322;2022-07-29T03:45:10;8.67;;;4.60;;
37543;SDS011;23385;52.038;20.322;2022-07-29T03:47:40;7.03;;;4.40;;
37543;SDS011;23385;52.038;20.322;2022-07-29T03:50:10;7.13;;;4.63;;
37543;SDS011;23385;52.038;20.322;2022-07-29T03:52:38;6.57;;;4.50;;
37543;SDS011;23385;52.038;20.322;2022-07-29T03:55:04;6.17;;;4.40;;
37543;SDS011;23385;52.038;20.322;2022-07-29T03:57:31;8.63;;;4.40;;
37543;SDS011;23385;52.038;20.322;2022-07-29T03:59:58;8.87;;;4.60;;
37543;SDS011;23385;52.038;20.322;2022-07-29T04:02:26;6.83;;;4.53;;
37543;SDS011;23385;52.038;20.322;2022-07-29T04:04:52;8.37;;;5.13;;
37543;SDS011;23385;52.038;20.322;2022-07-29T04:07:18;6.07;;;4.73;;
37543;SDS011;23385;52.038;20.322;2022-07-29T04:09:43;7.03;;;4.93;;
37543;SDS011;23385;52.038;20.322;2022-07-29T04:12:09;9.83;;;4.87;;
37543;SDS011;23385;52.038;20.322;2022-07-29T04:14:37;10.13;;;4.90;;
37543;SDS011;23385;52.038;20.322;2022-07-29T04:17:03;8.13;;;5.03;;
37543;SDS011;23385;52.038;20.322;2022-07-29T04:19:29;8.73;;;4.77;;
37543;SDS011;23385;52.038;20.322;2022-07-29T04:21:56;12.80;;;5.30;;
37543;SDS011;23385;52.038;20.322;2022-07-29T04:24:23;8.23;;;4.90;;
37543;SDS011;23385;52.038;20.322;2022-07-29T04:26:50;7.73;;;5.43;;
37543;SDS011;23385;52.038;20.322;2022-07-29T04:29:16;9.93;;;6.00;;
37543;SDS011;23385;52.038;20.322;2022-07-29T04:31:43;12.07;;;6.07;;
37543;SDS011;23385;52.038;20.322;2022-07-29T04:34:09;10.60;;;5.63;;
37543;SDS011;23385;52.038;20.322;2022-07-29T04:36:36;14.90;;;6.60;;
37543;SDS011;23385;52.038;20.322;2022-07-29T04:39:02;17.97;;;6.73;;
37543;SDS011;23385;52.038;20.322;2022-07-29T04:41:28;18.93;;;9.80;;
37543;SDS011;23385;52.038;20.322;2022-07-29T04:43:53;21.07;;;9.00;;
37543;SDS011;23385;52.038;20.322;2022-07-29T04:46:19;13.37;;;7.70;;
37543;SDS011;23385;52.038;20.322;2022-07-29T04:48:46;11.80;;;7.20;;
37543;SDS011;23385;52.038;20.322;2022-07-29T04:51:13;14.60;;;7.10;;
37543;SDS011;23385;52.038;20.322;2022-07-29T04:53:39;14.37;;;8.23;;
37543;SDS011;23385;52.038;20.322;2022-07-29T04:56:05;18.17;;;9.43;;
37543;SDS011;23385;52.038;20.322;2022-07-29T04:58:30;13.80;;;7.57;;
37543;SDS011;23385;52.038;20.322;2022-07-29T05:01:02;27.07;;;12.20;;
37543;SDS011;23385;52.038;20.322;2022-07-29T05:03:28;24.13;;;10.20;;
37543;SDS011;23385;52.038;20.322;2022-07-29T05:05:54;18.77;;;10.13;;
37543;SDS011;23385;52.038;20.322;2022-07-29T05:08:20;17.50;;;7.80;;
37543;SDS011;23385;52.038;20.322;2022-07-29T05:10:46;8.33;;;5.70;;
37543;SDS011;23385;52.038;20.322;2022-07-29T05:13:12;10.10;;;5.10;;
37543;SDS011;23385;52.038;20.322;2022-07-29T05:15:37;7.17;;;4.47;;
37543;SDS011;23385;52.038;20.322;2022-07-29T05:18:03;8.83;;;4.60;;
37543;SDS011;23385;52.038;20.322;2022-07-29T05:20:29;6.67;;;3.50;;
37543;SDS011;23385;52.038;20.322;2022-07-29T05:22:56;6.20;;;3.47;;
37543;SDS011;23385;52.038;20.322;2022-07-29T05:25:23;8.97;;;3.70;;
37543;SDS011;23385;52.038;20.322;2022-07-29T05:27:49;3.63;;;2.93;;
37543;SDS011;23385;52.038;20.322;2022-07-29T05:30:15;3.87;;;2.80;;
37543;SDS011;23385;52.038;20.322;2022-07-29T05:32:41;5.57;;;2.77;;
37543;SDS011;23385;52.038;20.322;2022-07-29T05:35:07;6.00;;;3.00;;
37543;SDS011;23385;52.038;20.322;2022-07-29T05:37:33;5.80;;;3.00;;
37543;SDS011;23385;52.038;20.322;2022-07-29T05:39:59;3.30;;;2.57;;
37543;SDS011;23385;52.038;20.322;2022-07-29T05:42:25;3.13;;;2.37;;
37543;SDS011;23385;52.038;20.322;2022-07-29T05:44:51;8.43;;;2.07;;
37543;SDS011;23385;52.038;20.322;2022-07-29T05:47:17;5.03;;;2.17;;
37543;SDS011;23385;52.038;20.322;2022-07-29T05:49:43;5.57;;;2.47;;
37543;SDS011;23385;52.038;20.322;2022-07-29T05:52:09;4.83;;;2.10;;
37543;SDS011;23385;52.038;20.322;2022-07-29T05:54:35;6.83;;;2.20;;
37543;SDS011;23385;52.038;20.322;2022-07-29T05:57:01;3.53;;;2.23;;
37543;SDS011;23385;52.038;20.322;2022-07-29T05:59:27;3.90;;;2.27;;
37543;SDS011;23385;52.038;20.322;2022-07-29T06:01:52;6.15;;;1.90;;
37543;SDS011;23385;52.038;20.322;2022-07-29T06:04:19;5.00;;;1.65;;
37543;SDS011;23385;52.038;20.322;2022-07-29T06:06:45;6.43;;;1.98;;
37543;SDS011;23385;52.038;20.322;2022-07-29T06:09:11;3.35;;;1.70;;
37543;SDS011;23385;52.038;20.322;2022-07-29T06:11:37;3.80;;;1.77;;
37543;SDS011;23385;52.038;20.322;2022-07-29T06:14:04;4.57;;;2.00;;
37543;SDS011;23385;52.038;20.322;2022-07-29T06:16:30;6.45;;;1.83;;
37543;SDS011;23385;52.038;20.322;2022-07-29T06:18:56;4.75;;;1.60;;
37543;SDS011;23385;52.038;20.322;2022-07-29T06:21:21;5.43;;;1.58;;
37543;SDS011;23385;52.038;20.322;2022-07-29T06:23:47;6.97;;;1.88;;
37543;SDS011;23385;52.038;20.322;2022-07-29T06:26:13;2.53;;;1.85;;
37543;SDS011;23385;52.038;20.322;2022-07-29T06:28:38;4.70;;;2.00;;
37543;SDS011;23385;52.038;20.322;2022-07-29T06:31:04;3.60;;;1.83;;
37543;SDS011;23385;52.038;20.322;2022-07-29T06:33:30;3.75;;;1.63;;
37543;SDS011;23385;52.038;20.322;2022-07-29T06:35:56;8.57;;;1.88;;
37543;SDS011;23385;52.038;20.322;2022-07-29T06:38:22;5.70;;;1.70;;
37543;SDS011;23385;52.038;20.322;2022-07-29T06:40:51;4.53;;;1.40;;
37543;SDS011;23385;52.038;20.322;2022-07-29T06:43:36;2.33;;;1.35;;
37543;SDS011;23385;52.038;20.322;2022-07-29T06:46:14;4.15;;;1.65;;
37543;SDS011;23385;52.038;20.322;2022-07-29T06:48:56;6.88;;;1.52;;
37543;SDS011;23385;52.038;20.322;2022-07-29T06:51:35;4.07;;;1.50;;
37543;SDS011;23385;52.038;20.322;2022-07-29T06:54:08;2.25;;;1.48;;
37543;SDS011;23385;52.038;20.322;2022-07-29T06:56:34;6.68;;;1.60;;
37543;SDS011;23385;52.038;20.322;2022-07-29T06:59:02;7.70;;;1.50;;
37543;SDS011;23385;52.038;20.322;2022-07-29T07:01:30;3.58;;;1.60;;
37543;SDS011;23385;52.038;20.322;2022-07-29T07:03:56;5.18;;;1.58;;
37543;SDS011;23385;52.038;20.322;2022-07-29T07:06:21;6.90;;;1.73;;
37543;SDS011;23385;52.038;20.322;2022-07-29T07:08:47;3.80;;;1.50;;
37543;SDS011;23385;52.038;20.322;2022-07-29T07:11:16;6.57;;;1.70;;
37543;SDS011;23385;52.038;20.322;2022-07-29T07:13:51;4.82;;;1.50;;
37543;SDS011;23385;52.038;20.322;2022-07-29T07:16:17;2.58;;;1.42;;
37543;SDS011;23385;52.038;20.322;2022-07-29T07:18:43;3.75;;;1.55;;
37543;SDS011;23385;52.038;20.322;2022-07-29T07:21:10;4.75;;;1.35;;
37543;SDS011;23385;52.038;20.322;2022-07-29T07:23:36;4.47;;;1.70;;
37543;SDS011;23385;52.038;20.322;2022-07-29T07:26:02;10.90;;;1.50;;
37543;SDS011;23385;52.038;20.322;2022-07-29T07:28:29;8.60;;;1.50;;
37543;SDS011;23385;52.038;20.322;2022-07-29T07:30:57;4.60;;;1.88;;
37543;SDS011;23385;52.038;20.322;2022-07-29T07:33:26;3.33;;;1.48;;
37543;SDS011;23385;52.038;20.322;2022-07-29T07:35:51;4.25;;;1.50;;
37543;SDS011;23385;52.038;20.322;2022-07-29T07:38:17;7.57;;;1.50;;
37543;SDS011;23385;52.038;20.322;2022-07-29T07:40:43;1.98;;;1.30;;
37543;SDS011;23385;52.038;20.322;2022-07-29T07:43:11;6.22;;;1.40;;
37543;SDS011;23385;52.038;20.322;2022-07-29T07:45:37;5.15;;;1.48;;
37543;SDS011;23385;52.038;20.322;2022-07-29T07:48:05;2.30;;;1.23;;
37543;SDS011;23385;52.038;20.322;2022-07-29T07:50:31;7.05;;;1.30;;
37543;SDS011;23385;52.038;20.322;2022-07-29T07:52:56;4.63;;;1.10;;
37543;SDS011;23385;52.038;20.322;2022-07-29T07:55:22;9.13;;;1.42;;
37543;SDS011;23385;52.038;20.322;2022-07-29T07:57:48;6.15;;;1.38;;
37543;SDS011;23385;52.038;20.322;2022-07-29T08:00:14;5.50;;;1.38;;
37543;SDS011;23385;52.038;20.322;2022-07-29T08:02:41;2.20;;;1.23;;
37543;SDS011;23385;52.038;20.322;2022-07-29T08:05:08;6.57;;;1.55;;
37543;SDS011;23385;52.038;20.322;2022-07-29T08:07:34;3.45;;;1.08;;
37543;SDS011;23385;52.038;20.322;2022-07-29T08:10:02;3.38;;;1.20;;
37543;SDS011;23385;52.038;20.322;2022-07-29T08:12:28;2.70;;;1.20;;
37543;SDS011;23385;52.038;20.322;2022-07-29T08:14:55;2.95;;;1.15;;
37543;SDS011;23385;52.038;20.322;2022-07-29T08:17:20;5.18;;;1.20;;
37543;SDS011;23385;52.038;20.322;2022-07-29T08:19:46;5.20;;;1.27;;
37543;SDS011;23385;52.038;20.322;2022-07-29T08:22:13;3.58;;;1.45;;
37543;SDS011;23385;52.038;20.322;2022-07-29T08:24:45;4.78;;;1.20;;
37543;SDS011;23385;52.038;20.322;2022-07-29T08:27:21;1.75;;;0.93;;
37543;SDS011;23385;52.038;20.322;2022-07-29T08:29:47;3.78;;;1.27;;
37543;SDS011;23385;52.038;20.322;2022-07-29T08:32:12;2.75;;;1.10;;
37543;SDS011;23385;52.038;20.322;2022-07-29T08:34:39;2.42;;;1.13;;
37543;SDS011;23385;52.038;20.322;2022-07-29T08:37:05;5.50;;;1.52;;
37543;SDS011;23385;52.038;20.322;2022-07-29T08:39:30;3.55;;;1.08;;
37543;SDS011;23385;52.038;20.322;2022-07-29T08:41:56;5.07;;;1.33;;
37543;SDS011;23385;52.038;20.322;2022-07-29T08:44:22;5.50;;;1.35;;
37543;SDS011;23385;52.038;20.322;2022-07-29T08:46:48;3.78;;;1.67;;
37543;SDS011;23385;52.038;20.322;2022-07-29T08:49:16;2.38;;;1.10;;
37543;SDS011;23385;52.038;20.322;2022-07-29T08:51:43;4.53;;;1.60;;
37543;SDS011;23385;52.038;20.322;2022-07-29T08:54:09;2.35;;;1.17;;
37543;SDS011;23385;52.038;20.322;2022-07-29T08:56:37;5.18;;;1.15;;
37543;SDS011;23385;52.038;20.322;2022-07-29T08:59:05;1.83;;;1.08;;
37543;SDS011;23385;52.038;20.322;2022-07-29T09:01:32;5.43;;;0.98;;
37543;SDS011;23385;52.038;20.322;2022-07-29T09:04:02;3.08;;;1.00;;
37543;SDS011;23385;52.038;20.322;2022-07-29T09:06:31;7.93;;;1.45;;
37543;SDS011;23385;52.038;20.322;2022-07-29T09:09:01;6.70;;;1.52;;
37543;SDS011;23385;52.038;20.322;2022-07-29T09:11:26;4.47;;;1.40;;
37543;SDS011;23385;52.038;20.322;2022-07-29T09:13:53;6.60;;;1.13;;
37543;SDS011;23385;52.038;20.322;2022-07-29T09:16:19;2.00;;;0.90;;
37543;SDS011;23385;52.038;20.322;2022-07-29T09:18:45;4.72;;;1.15;;
37543;SDS011;23385;52.038;20.322;2022-07-29T09:21:15;3.63;;;1.17;;
37543;SDS011;23385;52.038;20.322;2022-07-29T09:24:16;1.63;;;1.20;;
37543;SDS011;23385;52.038;20.322;2022-07-29T09:26:57;1.98;;;0.93;;
37543;SDS011;23385;52.038;20.322;2022-07-29T09:29:43;5.97;;;1.10;;
37543;SDS011;23385;52.038;20.322;2022-07-29T09:32:14;2.75;;;1.10;;
37543;SDS011;23385;52.038;20.322;2022-07-29T09:34:40;3.25;;;1.13;;
37543;SDS011;23385;52.038;20.322;2022-07-29T09:37:06;5.57;;;1.30;;
37543;SDS011;23385;52.038;20.322;2022-07-29T09:39:36;3.92;;;1.10;;
37543;SDS011;23385;52.038;20.322;2022-07-29T09:42:13;4.28;;;1.15;;
37543;SDS011;23385;52.038;20.322;2022-07-29T09:44:53;3.10;;;1.40;;
37543;SDS011;23385;52.038;20.322;2022-07-29T09:47:19;2.90;;;1.02;;
37543;SDS011;23385;52.038;20.322;2022-07-29T09:49:50;3.95;;;1.33;;
37543;SDS011;23385;52.038;20.322;2022-07-29T09:52:23;2.15;;;1.25;;
37543;SDS011;23385;52.038;20.322;2022-07-29T09:54:49;4.78;;;1.05;;
37543;SDS011;23385;52.038;20.322;2022-07-29T09:57:26;4.35;;;1.20;;
37543;SDS011;23385;52.038;20.322;2022-07-29T09:59:57;2.53;;;1.00;;
37543;SDS011;23385;52.038;20.322;2022-07-29T10:02:24;12.80;;;1.30;;
37543;SDS011;23385;52.038;20.322;2022-07-29T10:04:53;5.47;;;1.20;;
37543;SDS011;23385;52.038;20.322;2022-07-29T10:07:18;3.42;;;1.38;;
37543;SDS011;23385;52.038;20.322;2022-07-29T10:09:52;5.57;;;1.05;;
37543;SDS011;23385;52.038;20.322;2022-07-29T10:12:22;6.65;;;0.90;;
37543;SDS011;23385;52.038;20.322;2022-07-29T10:14:49;4.10;;;1.10;;
37543;SDS011;23385;52.038;20.322;2022-07-29T10:17:16;1.80;;;0.80;;
37543;SDS011;23385;52.038;20.322;2022-07-29T10:19:43;4.00;;;0.82;;
37543;SDS011;23385;52.038;20.322;2022-07-29T10:22:09;4.88;;;1.00;;
37543;SDS011;23385;52.038;20.322;2022-07-29T10:24:36;3.92;;;0.80;;
37543;SDS011;23385;52.038;20.322;2022-07-29T10:27:05;6.75;;;0.95;;
37543;SDS011;23385;52.038;20.322;2022-07-29T10:29:32;4.85;;;0.90;;
37543;SDS011;23385;52.038;20.322;2022-07-29T10:40:57;3.40;;;1.00;;
37543;SDS011;23385;52.038;20.322;2022-07-29T10:43:50;4.57;;;1.10;;
37543;SDS011;23385;52.038;20.322;2022-07-29T10:46:19;1.85;;;1.00;;
37543;SDS011;23385;52.038;20.322;2022-07-29T10:49:04;5.45;;;1.08;;
37543;SDS011;23385;52.038;20.322;2022-07-29T10:57:15;9.82;;;1.40;;
37543;SDS011;23385;52.038;20.322;2022-07-29T11:05:02;14.65;;;1.30;;
37543;SDS011;23385;52.038;20.322;2022-07-29T11:07:29;4.28;;;1.20;;
37543;SDS011;23385;52.038;20.322;2022-07-29T11:15:12;3.03;;;0.90;;
37543;SDS011;23385;52.038;20.322;2022-07-29T11:20:31;1.60;;;0.77;;
37543;SDS011;23385;52.038;20.322;2022-07-29T11:26:19;1.25;;;0.80;;
37543;SDS011;23385;52.038;20.322;2022-07-29T11:31:32;2.17;;;0.85;;
37543;SDS011;23385;52.038;20.322;2022-07-29T11:40:08;4.07;;;1.00;;
37543;SDS011;23385;52.038;20.322;2022-07-29T11:42:39;3.70;;;0.95;;
37543;SDS011;23385;52.038;20.322;2022-07-29T11:45:16;4.45;;;0.90;;
37543;SDS011;23385;52.038;20.322;2022-07-29T11:50:26;4.75;;;1.10;;
37543;SDS011;23385;52.038;20.322;2022-07-29T11:52:57;4.90;;;0.90;;
37543;SDS011;23385;52.038;20.322;2022-07-29T11:55:23;1.75;;;0.85;;
37543;SDS011;23385;52.038;20.322;2022-07-29T12:00:25;6.40;;;0.95;;
37543;SDS011;23385;52.038;20.322;2022-07-29T12:03:05;3.97;;;0.90;;
37543;SDS011;23385;52.038;20.322;2022-07-29T12:05:40;2.28;;;0.80;;
37543;SDS011;23385;52.038;20.322;2022-07-29T12:08:23;2.35;;;1.02;;
37543;SDS011;23385;52.038;20.322;2022-07-29T12:10:51;4.00;;;1.00;;
37543;SDS011;23385;52.038;20.322;2022-07-29T12:13:18;2.42;;;1.08;;
37543;SDS011;23385;52.038;20.322;2022-07-29T12:15:55;2.97;;;0.82;;
37543;SDS011;23385;52.038;20.322;2022-07-29T12:18:25;3.53;;;0.80;;
37543;SDS011;23385;52.038;20.322;2022-07-29T12:20:58;3.17;;;0.65;;
37543;SDS011;23385;52.038;20.322;2022-07-29T12:23:33;5.10;;;0.63;;
37543;SDS011;23385;52.038;20.322;2022-07-29T12:26:23;3.90;;;0.93;;
37543;SDS011;23385;52.038;20.322;2022-07-29T12:28:49;1.20;;;0.70;;
37543;SDS011;23385;52.038;20.322;2022-07-29T12:31:15;3.88;;;1.10;;
37543;SDS011;23385;52.038;20.322;2022-07-29T12:33:41;2.50;;;1.00;;
37543;SDS011;23385;52.038;20.322;2022-07-29T12:36:07;1.83;;;0.90;;
37543;SDS011;23385;52.038;20.322;2022-07-29T12:38:36;5.80;;;0.98;;
37543;SDS011;23385;52.038;20.322;2022-07-29T12:41:05;4.95;;;0.93;;
37543;SDS011;23385;52.038;20.322;2022-07-29T12:43:32;5.72;;;0.85;;
37543;SDS011;23385;52.038;20.322;2022-07-29T12:46:16;1.85;;;1.08;;
37543;SDS011;23385;52.038;20.322;2022-07-29T12:48:56;2.85;;;0.98;;
37543;SDS011;23385;52.038;20.322;2022-07-29T12:51:35;3.13;;;0.77;;
37543;SDS011;23385;52.038;20.322;2022-07-29T12:54:15;1.65;;;0.80;;
37543;SDS011;23385;52.038;20.322;2022-07-29T12:56:43;4.05;;;0.70;;
37543;SDS011;23385;52.038;20.322;2022-07-29T12:59:20;4.95;;;1.13;;
37543;SDS011;23385;52.038;20.322;2022-07-29T13:01:47;4.95;;;1.10;;
37543;SDS011;23385;52.038;20.322;2022-07-29T13:04:31;5.07;;;0.95;;
37543;SDS011;23385;52.038;20.322;2022-07-29T13:07:02;3.17;;;0.85;;
37543;SDS011;23385;52.038;20.322;2022-07-29T13:09:44;3.13;;;1.00;;
37543;SDS011;23385;52.038;20.322;2022-07-29T13:12:13;3.75;;;0.70;;
37543;SDS011;23385;52.038;20.322;2022-07-29T13:14:46;2.90;;;0.70;;
37543;SDS011;23385;52.038;20.322;2022-07-29T13:17:20;4.50;;;0.80;;
37543;SDS011;23385;52.038;20.322;2022-07-29T13:20:03;4.75;;;0.93;;
37543;SDS011;23385;52.038;20.322;2022-07-29T13:22:34;3.70;;;1.15;;
37543;SDS011;23385;52.038;20.322;2022-07-29T13:25:01;6.50;;;3.33;;
37543;SDS011;23385;52.038;20.322;2022-07-29T13:27:28;3.03;;;1.73;;
37543;SDS011;23385;52.038;20.322;2022-07-29T13:29:56;1.60;;;0.90;;
37543;SDS011;23385;52.038;20.322;2022-07-29T13:32:26;1.75;;;0.70;;
37543;SDS011;23385;52.038;20.322;2022-07-29T13:35:07;1.55;;;0.80;;
37543;SDS011;23385;52.038;20.322;2022-07-29T13:37:45;4.25;;;0.80;;
37543;SDS011;23385;52.038;20.322;2022-07-29T13:40:27;3.22;;;0.80;;
37543;SDS011;23385;52.038;20.322;2022-07-29T13:42:54;1.20;;;0.65;;
37543;SDS011;23385;52.038;20.322;2022-07-29T13:45:19;2.13;;;0.85;;
37543;SDS011;23385;52.038;20.322;2022-07-29T13:47:45;3.30;;;0.60;;
37543;SDS011;23385;52.038;20.322;2022-07-29T13:50:11;1.48;;;0.80;;
37543;SDS011;23385;52.038;20.322;2022-07-29T13:52:36;3.60;;;0.88;;
37543;SDS011;23385;52.038;20.322;2022-07-29T13:55:03;4.50;;;0.90;;
37543;SDS011;23385;52.038;20.322;2022-07-29T13:57:29;5.50;;;1.02;;
37543;SDS011;23385;52.038;20.322;2022-07-29T14:00:02;6.38;;;0.80;;
37543;SDS011;23385;52.038;20.322;2022-07-29T14:02:37;5.05;;;0.90;;
37543;SDS011;23385;52.038;20.322;2022-07-29T14:05:04;2.15;;;0.70;;
37543;SDS011;23385;52.038;20.322;2022-07-29T14:07:30;2.55;;;0.90;;
37543;SDS011;23385;52.038;20.322;2022-07-29T14:09:56;4.35;;;0.93;;
37543;SDS011;23385;52.038;20.322;2022-07-29T14:12:22;3.83;;;1.30;;
37543;SDS011;23385;52.038;20.322;2022-07-29T14:14:48;3.42;;;1.02;;
37543;SDS011;23385;52.038;20.322;2022-07-29T14:17:19;4.13;;;1.00;;
37543;SDS011;23385;52.038;20.322;2022-07-29T14:20:00;1.75;;;0.73;;
37543;SDS011;23385;52.038;20.322;2022-07-29T14:22:26;4.57;;;1.00;;
37543;SDS011;23385;52.038;20.322;2022-07-29T14:24:51;3.97;;;1.40;;
37543;SDS011;23385;52.038;20.322;2022-07-29T14:27:18;1.27;;;0.80;;
37543;SDS011;23385;52.038;20.322;2022-07-29T14:29:48;2.45;;;1.00;;
37543;SDS011;23385;52.038;20.322;2022-07-29T14:32:16;1.48;;;1.00;;
37543;SDS011;23385;52.038;20.322;2022-07-29T14:34:46;5.10;;;1.00;;
37543;SDS011;23385;52.038;20.322;2022-07-29T14:37:17;5.43;;;1.00;;
37543;SDS011;23385;52.038;20.322;2022-07-29T14:39:57;2.08;;;1.00;;
37543;SDS011;23385;52.038;20.322;2022-07-29T14:42:39;4.22;;;0.80;;
37543;SDS011;23385;52.038;20.322;2022-07-29T14:45:18;2.10;;;0.77;;
37543;SDS011;23385;52.038;20.322;2022-07-29T14:47:52;2.80;;;0.90;;
37543;SDS011;23385;52.038;20.322;2022-07-29T14:50:18;5.95;;;1.08;;
37543;SDS011;23385;52.038;20.322;2022-07-29T14:52:44;4.05;;;2.47;;
37543;SDS011;23385;52.038;20.322;2022-07-29T14:55:11;2.45;;;1.60;;
37543;SDS011;23385;52.038;20.322;2022-07-29T14:57:37;2.45;;;1.20;;
37543;SDS011;23385;52.038;20.322;2022-07-29T15:00:03;3.72;;;1.08;;
37543;SDS011;23385;52.038;20.322;2022-07-29T15:02:31;1.20;;;0.90;;
37543;SDS011;23385;52.038;20.322;2022-07-29T15:04:57;2.28;;;0.82;;
37543;SDS011;23385;52.038;20.322;2022-07-29T15:07:23;2.58;;;0.80;;
37543;SDS011;23385;52.038;20.322;2022-07-29T15:09:49;4.28;;;0.93;;
37543;SDS011;23385;52.038;20.322;2022-07-29T15:12:15;1.50;;;0.85;;
37543;SDS011;23385;52.038;20.322;2022-07-29T15:14:41;3.55;;;0.73;;
37543;SDS011;23385;52.038;20.322;2022-07-29T15:17:06;5.53;;;1.10;;
37543;SDS011;23385;52.038;20.322;2022-07-29T15:19:32;3.90;;;0.90;;
37543;SDS011;23385;52.038;20.322;2022-07-29T15:21:58;2.17;;;0.80;;
37543;SDS011;23385;52.038;20.322;2022-07-29T15:24:24;3.40;;;1.00;;
37543;SDS011;23385;52.038;20.322;2022-07-29T15:26:50;4.68;;;1.02;;
37543;SDS011;23385;52.038;20.322;2022-07-29T15:29:17;2.13;;;1.25;;
37543;SDS011;23385;52.038;20.322;2022-07-29T15:31:43;5.13;;;1.10;;
37543;SDS011;23385;52.038;20.322;2022-07-29T15:34:10;3.58;;;0.90;;
37543;SDS011;23385;52.038;20.322;2022-07-29T15:36:36;4.50;;;0.90;;
37543;SDS011;23385;52.038;20.322;2022-07-29T15:39:02;6.55;;;1.30;;
37543;SDS011;23385;52.038;20.322;2022-07-29T15:41:28;8.25;;;1.05;;
37543;SDS011;23385;52.038;20.322;2022-07-29T15:43:59;3.35;;;0.80;;
37543;SDS011;23385;52.038;20.322;2022-07-29T15:46:31;2.85;;;1.20;;
37543;SDS011;23385;52.038;20.322;2022-07-29T15:49:15;4.85;;;4.35;;
37543;SDS011;23385;52.038;20.322;2022-07-29T15:51:41;4.60;;;1.98;;
37543;SDS011;23385;52.038;20.322;2022-07-29T15:54:07;2.10;;;1.50;;
37543;SDS011;23385;52.038;20.322;2022-07-29T15:56:32;1.55;;;1.08;;
37543;SDS011;23385;52.038;20.322;2022-07-29T15:58:59;1.50;;;0.77;;
37543;SDS011;23385;52.038;20.322;2022-07-29T16:01:32;2.53;;;1.02;;
37543;SDS011;23385;52.038;20.322;2022-07-29T16:04:06;1.27;;;0.73;;
37543;SDS011;23385;52.038;20.322;2022-07-29T16:06:32;3.72;;;1.20;;
37543;SDS011;23385;52.038;20.322;2022-07-29T16:08:58;2.08;;;0.95;;
37543;SDS011;23385;52.038;20.322;2022-07-29T16:11:24;1.42;;;0.80;;
37543;SDS011;23385;52.038;20.322;2022-07-29T16:13:50;7.68;;;1.30;;
37543;SDS011;23385;52.038;20.322;2022-07-29T16:16:16;3.17;;;0.90;;